createdAt,value
2018-07-21T00:02:10.874Z,5.47
2018-07-21T00:04:39.105Z,5.30
2018-07-21T00:07:07.349Z,5.83
2018-07-21T00:09:35.607Z,6.45
2018-07-21T00:12:03.914Z,5.67
2018-07-21T00:14:32.166Z,5.65
2018-07-21T00:17:00.441Z,6.00
2018-07-21T00:19:28.710Z,5.12
2018-07-21T00:21:56.974Z,5.10
2018-07-21T00:24:25.271Z,4.78
2018-07-21T00:26:53.513Z,4.93
2018-07-21T00:29:21.812Z,5.80
2018-07-21T00:31:50.008Z,5.03
2018-07-21T00:34:18.322Z,5.40
2018-07-21T00:36:46.553Z,5.60
2018-07-21T00:39:15.736Z,4.70
2018-07-21T00:41:44.304Z,4.70
2018-07-21T00:44:12.680Z,4.77
2018-07-21T00:46:40.887Z,3.80
2018-07-21T00:49:09.197Z,3.90
2018-07-21T00:51:37.404Z,4.37
2018-07-21T00:54:05.683Z,4.23
2018-07-21T00:56:33.939Z,4.60
2018-07-21T00:59:03.004Z,4.20
2018-07-21T01:01:31.293Z,5.20
2018-07-21T01:03:59.573Z,4.45
2018-07-21T01:06:27.798Z,4.15
2018-07-21T01:08:56.110Z,4.42
2018-07-21T01:11:24.361Z,5.03
2018-07-21T01:13:52.668Z,4.40
2018-07-21T01:16:20.936Z,4.33
2018-07-21T01:18:49.182Z,4.97
2018-07-21T01:21:17.495Z,5.80
2018-07-21T01:23:45.727Z,3.92
2018-07-21T01:26:13.994Z,4.10
2018-07-21T01:28:42.205Z,4.40
2018-07-21T01:31:10.524Z,4.37
2018-07-21T01:33:38.847Z,4.23
2018-07-21T01:36:07.099Z,4.58
2018-07-21T01:38:35.337Z,4.35
2018-07-21T01:41:04.234Z,4.70
2018-07-21T01:43:32.577Z,4.67
2018-07-21T01:46:00.896Z,4.40
2018-07-21T01:48:29.194Z,4.12
2018-07-21T01:50:57.454Z,4.77
2018-07-21T01:53:25.694Z,4.70
2018-07-21T01:55:53.963Z,4.57
2018-07-21T01:58:22.190Z,4.70
2018-07-21T02:00:50.507Z,4.40
2018-07-21T02:03:18.704Z,3.90
2018-07-21T02:05:46.979Z,4.20
2018-07-21T02:08:15.250Z,3.90
2018-07-21T02:10:43.484Z,3.80
2018-07-21T02:13:11.786Z,4.10
2018-07-21T02:15:40.095Z,3.70
2018-07-21T02:18:08.320Z,3.40
2018-07-21T02:20:36.601Z,3.40
2018-07-21T02:23:05.340Z,3.17
2018-07-21T02:25:33.582Z,3.80
2018-07-21T02:28:01.992Z,3.13
2018-07-21T02:30:30.245Z,3.67
2018-07-21T02:32:58.602Z,3.43
2018-07-21T02:35:26.830Z,3.63
2018-07-21T02:37:55.136Z,3.40
2018-07-21T02:40:23.588Z,4.17
2018-07-21T02:42:51.848Z,4.00
2018-07-21T02:45:20.131Z,3.33
2018-07-21T02:47:48.360Z,3.60
2018-07-21T02:50:16.613Z,3.30
2018-07-21T02:52:44.915Z,3.50
2018-07-21T02:55:13.148Z,4.30
2018-07-21T02:57:41.431Z,3.30
2018-07-21T03:00:09.707Z,3.80
2018-07-21T03:02:37.948Z,3.30
2018-07-21T03:05:06.275Z,4.20
2018-07-21T03:07:34.509Z,3.93
2018-07-21T03:10:03.435Z,3.90
2018-07-21T03:12:31.644Z,3.70
2018-07-21T03:14:59.905Z,3.80
2018-07-21T03:17:28.205Z,3.97
2018-07-21T03:19:56.477Z,4.20
2018-07-21T03:22:24.746Z,4.10
2018-07-21T03:24:53.014Z,3.80
2018-07-21T03:27:21.278Z,3.73
2018-07-21T03:29:49.561Z,3.57
2018-07-21T03:32:17.790Z,4.20
2018-07-21T03:34:46.074Z,3.70
2018-07-21T03:37:14.302Z,3.83
2018-07-21T03:39:43.091Z,3.80
2018-07-21T03:42:11.384Z,4.07
2018-07-21T03:44:39.643Z,4.10
2018-07-21T03:47:07.903Z,4.10
2018-07-21T03:49:36.147Z,3.80
2018-07-21T03:52:04.420Z,4.80
2018-07-21T03:54:32.615Z,3.93
2018-07-21T03:57:00.920Z,4.00
2018-07-21T03:59:29.143Z,4.03
2018-07-21T04:01:57.413Z,4.53
2018-07-21T04:04:25.676Z,4.57
2018-07-21T04:06:53.948Z,4.80
2018-07-21T04:09:22.175Z,4.13
2018-07-21T04:11:50.437Z,4.60
2018-07-21T04:14:18.636Z,5.33
2018-07-21T04:16:46.907Z,4.97
2018-07-21T04:19:15.178Z,4.57
2018-07-21T04:21:43.655Z,4.47
2018-07-21T04:24:11.897Z,4.43
2018-07-21T04:26:40.177Z,4.53
2018-07-21T04:29:08.418Z,4.23
2018-07-21T04:31:36.643Z,5.53
2018-07-21T04:34:04.888Z,4.87
2018-07-21T04:36:33.182Z,4.90
2018-07-21T04:39:01.951Z,5.13
2018-07-21T04:41:30.215Z,4.90
2018-07-21T04:43:58.564Z,5.03
2018-07-21T04:46:26.828Z,5.70
2018-07-21T04:48:55.100Z,5.97
2018-07-21T04:51:23.348Z,6.33
2018-07-21T04:53:51.598Z,6.85
2018-07-21T04:56:19.812Z,5.12
2018-07-21T04:58:48.109Z,6.00
2018-07-21T05:01:16.340Z,5.95
2018-07-21T05:03:44.600Z,5.13
2018-07-21T05:06:12.830Z,6.77
2018-07-21T05:08:41.161Z,5.90
2018-07-21T05:11:09.387Z,6.03
2018-07-21T05:13:37.647Z,5.80
2018-07-21T05:16:06.134Z,6.03
2018-07-21T05:18:34.405Z,5.67
2018-07-21T05:21:02.850Z,6.13
2018-07-21T05:23:31.121Z,5.97
2018-07-21T05:25:59.366Z,6.20
2018-07-21T05:28:27.636Z,6.13
2018-07-21T05:30:55.883Z,6.90
2018-07-21T05:33:24.176Z,5.77
2018-07-21T05:35:52.411Z,6.63
2018-07-21T05:38:20.649Z,7.70
2018-07-21T05:40:49.193Z,7.07
2018-07-21T05:43:17.400Z,6.20
2018-07-21T05:45:45.713Z,6.77
2018-07-21T05:48:13.960Z,6.80
2018-07-21T05:50:42.238Z,6.57
2018-07-21T05:53:10.495Z,7.10
2018-07-21T05:55:38.717Z,6.47
2018-07-21T05:58:06.990Z,6.23
2018-07-21T06:00:35.250Z,6.30
2018-07-21T06:03:03.562Z,7.10
2018-07-21T06:05:31.735Z,5.80
2018-07-21T06:07:59.980Z,6.53
2018-07-21T06:10:28.256Z,5.93
2018-07-21T06:12:56.518Z,6.10
2018-07-21T06:15:24.793Z,6.20
2018-07-21T06:17:52.992Z,5.83
2018-07-21T06:20:21.288Z,5.57
2018-07-21T06:22:49.579Z,6.20
2018-07-21T06:25:17.846Z,5.73
2018-07-21T06:27:46.089Z,5.70
2018-07-21T06:30:14.317Z,7.47
2018-07-21T06:32:42.580Z,7.13
2018-07-21T06:35:10.807Z,7.40
2018-07-21T06:37:39.087Z,7.47
2018-07-21T06:40:07.374Z,7.28
2018-07-21T06:42:35.715Z,7.28
2018-07-21T06:45:03.956Z,6.27
2018-07-21T06:47:32.229Z,6.27
2018-07-21T06:50:00.425Z,5.67
2018-07-21T06:52:28.726Z,6.27
2018-07-21T06:54:56.981Z,5.10
2018-07-21T06:57:25.272Z,5.17
2018-07-21T06:59:53.525Z,4.83
2018-07-21T07:02:21.804Z,4.47
2018-07-21T07:04:50.049Z,4.67
2018-07-21T07:07:18.317Z,4.83
2018-07-21T07:09:46.683Z,4.67
2018-07-21T07:12:14.952Z,3.67
2018-07-21T07:14:43.614Z,4.70
2018-07-21T07:17:12.048Z,4.57
2018-07-21T07:19:40.286Z,3.67
2018-07-21T07:22:08.601Z,4.10
2018-07-21T07:24:36.843Z,4.37
2018-07-21T07:27:05.623Z,4.27
2018-07-21T07:29:33.863Z,5.17
2018-07-21T07:32:02.146Z,5.03
2018-07-21T07:34:30.389Z,4.33
2018-07-21T07:36:58.653Z,4.27
2018-07-21T07:39:26.893Z,3.90
2018-07-21T07:41:55.180Z,3.70
2018-07-21T07:44:23.428Z,3.57
2018-07-21T07:46:51.709Z,3.50
2018-07-21T07:49:19.985Z,3.33
2018-07-21T07:51:48.249Z,2.67
2018-07-21T07:54:16.496Z,3.27
2018-07-21T07:56:44.785Z,3.42
2018-07-21T07:59:13.021Z,3.45
2018-07-21T08:01:41.282Z,2.80
2018-07-21T08:04:09.629Z,2.40
2018-07-21T08:06:37.861Z,2.43
2018-07-21T08:09:08.727Z,2.20
2018-07-21T08:11:36.990Z,2.40
2018-07-21T08:14:05.304Z,2.50
2018-07-21T08:16:33.525Z,2.40
2018-07-21T08:19:01.804Z,2.07
2018-07-21T08:21:30.125Z,2.30
2018-07-21T08:23:58.410Z,2.23
2018-07-21T08:26:26.681Z,2.00
2018-07-21T08:28:54.981Z,1.70
2018-07-21T08:31:23.189Z,1.80
2018-07-21T08:33:51.508Z,1.50
2018-07-21T08:36:19.728Z,2.02
2018-07-21T08:38:48.003Z,2.27
2018-07-21T08:41:16.248Z,1.90
2018-07-21T08:43:44.532Z,2.13
2018-07-21T08:46:12.848Z,3.03
2018-07-21T08:48:41.052Z,2.50
2018-07-21T08:51:09.381Z,2.20
2018-07-21T08:53:37.639Z,2.83
2018-07-21T08:56:06.019Z,3.00
2018-07-21T08:58:34.218Z,2.50
2018-07-21T09:01:03.064Z,2.40
2018-07-21T09:03:31.303Z,2.43
2018-07-21T09:05:59.777Z,2.60
2018-07-21T09:08:28.071Z,2.33
2018-07-21T09:10:56.404Z,2.40
2018-07-21T09:13:24.700Z,3.60
2018-07-21T09:15:52.977Z,2.57
2018-07-21T09:18:21.254Z,3.10
2018-07-21T09:20:49.574Z,2.60
2018-07-21T09:23:17.861Z,3.13
2018-07-21T09:25:46.180Z,3.40
2018-07-21T09:28:14.456Z,3.20
2018-07-21T09:30:42.686Z,3.53
2018-07-21T09:33:10.970Z,5.00
2018-07-21T09:35:39.196Z,6.97
2018-07-21T09:38:07.500Z,8.43
2018-07-21T09:40:35.756Z,8.10
2018-07-21T09:43:04.141Z,5.93
2018-07-21T09:45:32.387Z,4.60
2018-07-21T09:48:00.663Z,3.80
2018-07-21T09:50:28.913Z,5.00
2018-07-21T09:52:57.230Z,4.10
2018-07-21T09:55:25.485Z,3.40
2018-07-21T09:57:53.720Z,3.13
2018-07-21T10:00:27.498Z,2.90
2018-07-21T10:02:55.773Z,2.70
2018-07-21T10:05:24.006Z,3.00
2018-07-21T10:07:52.275Z,3.00
2018-07-21T10:10:21.930Z,3.37
2018-07-21T10:12:50.163Z,3.70
2018-07-21T10:15:18.440Z,2.83
2018-07-21T10:17:46.708Z,3.13
2018-07-21T10:20:15.121Z,3.23
2018-07-21T10:22:43.429Z,3.55
2018-07-21T10:25:17.128Z,3.40
2018-07-21T10:27:50.656Z,3.40
2018-07-21T10:30:18.934Z,3.17
2018-07-21T10:32:47.178Z,3.17
2018-07-21T10:35:15.452Z,5.17
2018-07-21T10:37:43.806Z,4.40
2018-07-21T10:40:12.125Z,4.28
2018-07-21T10:42:40.369Z,4.35
2018-07-21T10:45:08.682Z,3.50
2018-07-21T10:47:36.945Z,3.63
2018-07-21T10:50:07.221Z,3.73
2018-07-21T10:52:35.509Z,3.47
2018-07-21T10:55:03.795Z,3.98
2018-07-21T10:57:32.056Z,3.23
2018-07-21T11:00:00.339Z,3.40
2018-07-21T11:02:28.610Z,3.10
2018-07-21T11:04:57.679Z,3.20
2018-07-21T11:07:25.942Z,3.13
2018-07-21T11:09:54.188Z,3.27
2018-07-21T11:12:22.473Z,2.97
2018-07-21T11:14:50.742Z,4.37
2018-07-21T11:17:19.005Z,3.73
2018-07-21T11:19:47.238Z,3.80
2018-07-21T11:22:15.543Z,3.25
2018-07-21T11:24:43.794Z,3.20
2018-07-21T11:27:12.078Z,3.50
2018-07-21T11:29:40.314Z,3.93
2018-07-21T11:32:08.573Z,3.33
2018-07-21T11:34:36.831Z,3.20
2018-07-21T11:37:05.112Z,3.27
2018-07-21T11:39:33.340Z,3.07
2018-07-21T11:42:02.036Z,3.83
2018-07-21T11:44:30.304Z,4.60
2018-07-21T11:46:58.560Z,3.70
2018-07-21T11:49:26.803Z,3.50
2018-07-21T11:51:55.067Z,3.95
2018-07-21T11:54:23.410Z,3.37
2018-07-21T11:56:59.680Z,3.80
2018-07-21T11:59:28.173Z,4.90
2018-07-21T12:01:56.477Z,3.60
2018-07-21T12:04:25.375Z,3.75
2018-07-21T12:06:53.931Z,5.12
2018-07-21T12:09:22.221Z,3.85
2018-07-21T12:11:50.466Z,3.80
2018-07-21T12:14:18.778Z,3.80
2018-07-21T12:16:47.039Z,3.87
2018-07-21T12:19:15.422Z,3.60
2018-07-21T12:21:43.732Z,4.87
2018-07-21T12:24:12.025Z,5.30
2018-07-21T12:26:40.287Z,5.55
2018-07-21T12:29:08.755Z,4.70
2018-07-21T12:31:37.016Z,3.92
2018-07-21T12:34:05.396Z,5.10
2018-07-21T12:36:33.613Z,4.05
2018-07-21T12:39:02.082Z,3.87
2018-07-21T12:41:30.321Z,3.57
2018-07-21T12:43:58.556Z,4.93
2018-07-21T12:46:26.838Z,4.00
2018-07-21T12:48:55.162Z,4.90
2018-07-21T12:51:23.630Z,4.08
2018-07-21T12:53:51.823Z,4.15
2018-07-21T12:56:20.147Z,4.63
2018-07-21T12:58:48.372Z,6.45
2018-07-21T13:01:16.668Z,5.85
2018-07-21T13:03:45.012Z,3.92
2018-07-21T13:06:13.246Z,4.60
2018-07-21T13:08:41.513Z,4.20
2018-07-21T13:11:09.768Z,3.52
2018-07-21T13:13:38.051Z,4.20
2018-07-21T13:16:06.330Z,4.07
2018-07-21T13:18:34.622Z,4.10
2018-07-21T13:21:03.643Z,4.15
2018-07-21T13:23:31.890Z,3.80
2018-07-21T13:26:00.215Z,4.10
2018-07-21T13:28:28.460Z,3.27
2018-07-21T13:30:56.724Z,3.75
2018-07-21T13:33:24.984Z,3.70
2018-07-21T13:35:53.273Z,4.00
2018-07-21T13:38:21.540Z,4.05
2018-07-21T13:40:49.828Z,4.07
2018-07-21T13:43:18.091Z,3.43
2018-07-21T13:45:46.359Z,3.80
2018-07-21T13:48:14.663Z,3.62
2018-07-21T13:50:43.526Z,3.90
2018-07-21T13:53:11.845Z,3.35
2018-07-21T13:55:40.107Z,3.67
2018-07-21T13:58:08.405Z,4.75
2018-07-21T14:00:36.672Z,4.37
2018-07-21T14:03:04.932Z,4.20
2018-07-21T14:05:33.220Z,3.90
2018-07-21T14:08:02.022Z,4.95
2018-07-21T14:10:30.302Z,5.47
2018-07-21T14:12:58.576Z,4.80
2018-07-21T14:15:26.824Z,4.93
2018-07-21T14:17:55.132Z,4.75
2018-07-21T14:20:23.403Z,4.40
2018-07-21T14:22:51.728Z,4.78
2018-07-21T14:25:19.997Z,4.35
2018-07-21T14:27:48.308Z,4.60
2018-07-21T14:30:16.597Z,4.00
2018-07-21T14:32:44.883Z,3.90
2018-07-21T14:35:13.139Z,4.05
2018-07-21T14:37:41.444Z,3.98
2018-07-21T14:40:09.728Z,5.20
2018-07-21T14:42:38.006Z,4.35
2018-07-21T14:45:06.549Z,4.33
2018-07-21T14:47:34.819Z,4.50
2018-07-21T14:50:03.762Z,3.92
2018-07-21T14:52:32.015Z,4.30
2018-07-21T14:55:00.349Z,4.50
2018-07-21T14:57:28.932Z,3.90
2018-07-21T14:59:57.176Z,4.08
2018-07-21T15:02:25.467Z,3.67
2018-07-21T15:04:54.748Z,4.60
2018-07-21T15:07:22.992Z,4.15
2018-07-21T15:09:51.293Z,4.42
2018-07-21T15:12:19.630Z,5.00
2018-07-21T15:14:47.883Z,4.17
2018-07-21T15:17:16.147Z,3.33
2018-07-21T15:19:44.441Z,3.20
2018-07-21T15:22:12.720Z,4.30
2018-07-21T15:24:41.041Z,5.17
2018-07-21T15:27:09.294Z,4.20
2018-07-21T15:29:37.744Z,4.12
2018-07-21T15:32:05.904Z,4.80
2018-07-21T15:34:34.131Z,5.00
2018-07-21T15:37:02.560Z,4.30
2018-07-21T15:39:31.974Z,4.62
2018-07-21T15:42:00.239Z,5.30
2018-07-21T15:44:28.513Z,5.50
2018-07-21T15:46:56.744Z,4.62
2018-07-21T15:49:25.072Z,4.45
2018-07-21T15:51:53.336Z,4.70
2018-07-21T15:54:21.622Z,4.58
2018-07-21T15:56:49.925Z,5.00
2018-07-21T15:59:18.400Z,5.43
2018-07-21T16:01:47.553Z,5.78
2018-07-21T16:04:15.566Z,4.90
2018-07-21T16:06:43.855Z,6.00
2018-07-21T16:09:12.362Z,4.15
2018-07-21T16:11:41.216Z,3.90
2018-07-21T16:14:09.493Z,5.95
2018-07-21T16:16:38.714Z,4.72
2018-07-21T16:19:06.943Z,4.58
2018-07-21T16:21:35.517Z,4.30
2018-07-21T16:24:03.765Z,4.40
2018-07-21T16:26:32.045Z,4.62
2018-07-21T16:29:00.314Z,4.37
2018-07-21T16:31:28.619Z,4.25
2018-07-21T16:33:56.847Z,4.03
2018-07-21T16:36:25.716Z,3.98
2018-07-21T16:38:54.002Z,3.60
2018-07-21T16:41:22.278Z,4.67
2018-07-21T16:43:50.545Z,4.45
2018-07-21T16:46:18.851Z,4.50
2018-07-21T16:48:47.575Z,4.50
2018-07-21T16:51:15.811Z,3.90
2018-07-21T16:53:44.081Z,5.40
2018-07-21T16:56:12.323Z,5.03
2018-07-21T16:58:40.601Z,4.47
2018-07-21T17:01:08.882Z,5.53
2018-07-21T17:03:38.568Z,3.90
2018-07-21T17:06:06.884Z,5.20
2018-07-21T17:08:35.169Z,5.70
2018-07-21T17:11:03.436Z,5.12
2018-07-21T17:13:32.263Z,5.12
2018-07-21T17:16:00.495Z,4.50
2018-07-21T17:18:28.906Z,4.25
2018-07-21T17:20:57.168Z,4.15
2018-07-21T17:23:26.391Z,3.52
2018-07-21T17:25:54.662Z,3.67
2018-07-21T17:28:22.985Z,3.67
2018-07-21T17:30:51.328Z,3.85
2018-07-21T17:33:19.574Z,4.33
2018-07-21T17:35:47.886Z,4.33
2018-07-21T17:38:16.130Z,4.70
2018-07-21T17:40:44.397Z,4.15
2018-07-21T17:43:12.640Z,4.47
2018-07-21T17:45:41.054Z,4.60
2018-07-21T17:48:09.397Z,4.62
2018-07-21T17:50:37.700Z,4.65
2018-07-21T17:53:05.980Z,4.40
2018-07-21T17:55:34.267Z,5.15
2018-07-21T17:58:02.571Z,4.85
2018-07-21T18:00:31.304Z,5.10
2018-07-21T18:02:59.588Z,5.03
2018-07-21T18:05:27.885Z,4.90
2018-07-21T18:07:56.155Z,5.97
2018-07-21T18:10:24.416Z,5.25
2018-07-21T18:12:52.706Z,4.95
2018-07-21T18:15:20.927Z,5.93
2018-07-21T18:17:49.252Z,4.90
2018-07-21T18:20:17.454Z,4.97
2018-07-21T18:22:45.808Z,5.83
2018-07-21T18:25:14.117Z,5.63
2018-07-21T18:27:42.349Z,5.40
2018-07-21T18:30:10.592Z,5.10
2018-07-21T18:32:38.851Z,4.83
2018-07-21T18:35:07.161Z,5.40
2018-07-21T18:37:35.443Z,4.28
2018-07-21T18:40:03.937Z,3.33
2018-07-21T18:42:32.192Z,3.73
2018-07-21T18:45:00.472Z,3.47
2018-07-21T18:47:28.770Z,2.95
2018-07-21T18:49:57.854Z,3.47
2018-07-21T18:52:26.180Z,2.30
2018-07-21T18:54:54.440Z,2.73
2018-07-21T18:57:23.234Z,3.03
2018-07-21T18:59:51.560Z,2.77
2018-07-21T19:02:19.776Z,3.20
2018-07-21T19:04:48.021Z,2.40
2018-07-21T19:07:16.365Z,2.70
2018-07-21T19:09:44.604Z,3.50
2018-07-21T19:12:18.175Z,2.90
2018-07-21T19:14:46.527Z,3.25
2018-07-21T19:17:14.942Z,2.73
2018-07-21T19:19:48.500Z,3.13
2018-07-21T19:22:16.760Z,2.77
2018-07-21T19:24:45.130Z,3.30
2018-07-21T19:27:18.635Z,2.90
2018-07-21T19:29:47.090Z,3.07
2018-07-21T19:32:20.582Z,3.43
2018-07-21T19:34:48.880Z,3.43
2018-07-21T19:37:22.358Z,3.23
2018-07-21T19:39:50.608Z,3.47
2018-07-21T19:42:18.888Z,3.40
2018-07-21T19:44:47.197Z,3.43
2018-07-21T19:47:15.501Z,3.97
2018-07-21T19:49:43.763Z,3.90
2018-07-21T19:52:12.008Z,4.22
2018-07-21T19:54:40.296Z,3.63
2018-07-21T19:57:08.552Z,4.20
2018-07-21T19:59:38.840Z,3.80
2018-07-21T20:02:07.073Z,3.90
2018-07-21T20:04:35.353Z,3.83
2018-07-21T20:07:03.638Z,3.53
2018-07-21T20:09:31.880Z,3.80
2018-07-21T20:12:00.120Z,3.30
2018-07-21T20:14:28.394Z,4.00
2018-07-21T20:16:56.737Z,3.93
2018-07-21T20:19:24.999Z,4.40
2018-07-21T20:21:53.329Z,4.67
2018-07-21T20:24:21.602Z,3.87
2018-07-21T20:26:49.878Z,4.60
2018-07-21T20:29:18.112Z,5.20
2018-07-21T20:31:46.442Z,5.70
2018-07-21T20:34:14.706Z,5.57
2018-07-21T20:36:43.011Z,5.80
2018-07-21T20:39:11.680Z,6.00
2018-07-21T20:41:40.011Z,5.10
2018-07-21T20:44:08.250Z,6.35
2018-07-21T20:46:36.770Z,6.03
2018-07-21T20:49:04.976Z,6.22
2018-07-21T20:51:33.289Z,5.07
2018-07-21T20:54:01.527Z,4.97
2018-07-21T20:56:30.029Z,5.47
2018-07-21T20:58:58.314Z,5.30
2018-07-21T21:01:26.567Z,5.70
2018-07-21T21:03:54.809Z,5.43
2018-07-21T21:06:23.085Z,6.67
2018-07-21T21:08:51.382Z,5.20
2018-07-21T21:11:19.596Z,5.20
2018-07-21T21:13:47.963Z,5.33
2018-07-21T21:16:16.227Z,5.03
2018-07-21T21:18:44.512Z,5.07
2018-07-21T21:21:12.768Z,5.10
2018-07-21T21:23:41.104Z,5.13
2018-07-21T21:26:09.344Z,4.57
2018-07-21T21:28:37.620Z,5.97
2018-07-21T21:31:05.881Z,4.90
2018-07-21T21:33:34.137Z,5.47
2018-07-21T21:36:02.976Z,5.40
2018-07-21T21:38:31.284Z,4.93
2018-07-21T21:40:59.529Z,5.50
2018-07-21T21:43:27.811Z,5.80
2018-07-21T21:45:56.077Z,6.17
2018-07-21T21:48:24.572Z,6.07
2018-07-21T21:50:52.796Z,6.20
2018-07-21T21:53:21.050Z,6.80
2018-07-21T21:55:49.341Z,6.23
2018-07-21T21:58:17.624Z,6.90
2018-07-21T22:01:14.215Z,8.20
2018-07-21T22:03:42.884Z,7.40
2018-07-21T22:06:11.177Z,7.03
2018-07-21T22:08:39.467Z,7.90
2018-07-21T22:11:07.740Z,8.10
2018-07-21T22:13:35.982Z,10.28
2018-07-21T22:16:04.266Z,9.47
2018-07-21T22:18:32.694Z,8.50
2018-07-21T22:21:00.978Z,8.87
2018-07-21T22:23:29.257Z,8.87
2018-07-21T22:25:57.531Z,8.63
2018-07-21T22:28:25.774Z,8.93
2018-07-21T22:30:54.074Z,9.07
2018-07-21T22:33:22.318Z,8.87
2018-07-21T22:35:50.676Z,9.50
2018-07-21T22:38:18.933Z,9.83
2018-07-21T22:40:47.267Z,9.20
2018-07-21T22:43:15.557Z,9.20
2018-07-21T22:45:43.791Z,9.27
2018-07-21T22:48:12.009Z,9.33
2018-07-21T22:50:40.319Z,10.33
2018-07-21T22:53:08.564Z,10.00
2018-07-21T22:55:36.856Z,9.57
2018-07-21T22:58:05.139Z,11.00
2018-07-21T23:00:33.404Z,10.17
2018-07-21T23:03:02.116Z,10.03
2018-07-21T23:05:30.355Z,10.10
2018-07-21T23:07:58.634Z,10.80
2018-07-21T23:10:26.862Z,9.63
2018-07-21T23:12:55.181Z,10.73
2018-07-21T23:15:23.391Z,9.77
2018-07-21T23:17:51.668Z,10.87
2018-07-21T23:20:19.912Z,9.37
2018-07-21T23:22:48.236Z,9.13
2018-07-21T23:25:16.486Z,9.30
2018-07-21T23:27:44.767Z,9.10
2018-07-21T23:30:13.064Z,9.80
2018-07-21T23:32:41.263Z,9.23
2018-07-21T23:35:09.540Z,8.30
2018-07-21T23:37:37.823Z,9.50
2018-07-21T23:40:06.743Z,9.57
2018-07-21T23:42:35.000Z,8.97
2018-07-21T23:45:03.552Z,9.40
2018-07-21T23:47:31.924Z,8.63
2018-07-21T23:50:00.206Z,8.70
2018-07-21T23:52:28.466Z,9.40
2018-07-21T23:54:56.712Z,8.40
2018-07-21T23:57:24.984Z,8.73
2018-07-21T23:59:53.285Z,8.73
